Time;durP1;ratioP1;P1;durP2;ratioP2;P2;SDS_P1;SDS_P2;PMS_P1;PMS_P2;Temp;Humidity;BMP_temperature;BMP_pressure;BME280_temperature;BME280_humidity;BME280_pressure;Samples;Min_cycle;Max_cycle;Signal;HPM_P1;HPM_P2
2023/09/20 00:02:14;;;;;;;3.08;2.03;;;17.50;99.90;;;;;;5059303;28;20136;-77
2023/09/20 00:04:42;;;;;;;4.38;2.00;;;17.40;99.90;;;;;;5057268;28;20040;-77
2023/09/20 00:07:10;;;;;;;4.72;1.98;;;17.40;99.90;;;;;;5059796;28;20036;-77
2023/09/20 00:09:38;;;;;;;4.18;2.22;;;17.30;99.90;;;;;;5063900;28;20114;-77
2023/09/20 00:12:06;;;;;;;3.33;2.05;;;17.30;99.90;;;;;;5058614;28;20052;-77
2023/09/20 00:14:34;;;;;;;4.25;2.47;;;17.40;99.90;;;;;;5050217;28;20052;-77
2023/09/20 00:17:01;;;;;;;3.53;1.95;;;17.30;99.90;;;;;;5064801;28;20123;-77
2023/09/20 00:19:28;;;;;;;4.35;2.08;;;17.40;99.90;;;;;;5048072;28;20072;-77
2023/09/20 00:21:55;;;;;;;2.80;1.80;;;17.30;99.90;;;;;;5048455;28;20075;-77
2023/09/20 00:24:23;;;;;;;3.80;1.65;;;17.30;99.90;;;;;;5057478;28;20041;-77
2023/09/20 00:26:50;;;;;;;3.90;1.90;;;17.30;99.90;;;;;;5043965;28;20122;-77
2023/09/20 00:29:17;;;;;;;3.17;1.90;;;17.30;99.90;;;;;;5057857;28;20495;-77
2023/09/20 00:31:44;;;;;;;5.03;2.75;;;17.30;99.90;;;;;;5061586;28;20049;-77
2023/09/20 00:34:13;;;;;;;5.60;2.55;;;17.30;99.90;;;;;;5051109;28;20057;-77
2023/09/20 00:36:40;;;;;;;4.40;3.08;;;17.30;99.90;;;;;;5040894;28;20052;-77
2023/09/20 00:39:09;;;;;;;5.10;2.90;;;17.30;99.90;;;;;;5059476;28;20041;-77
2023/09/20 00:41:37;;;;;;;4.88;3.10;;;17.20;99.90;;;;;;5071509;28;20153;-75
2023/09/20 00:44:04;;;;;;;6.28;3.00;;;17.20;99.90;;;;;;5040104;28;20109;-75
2023/09/20 00:46:32;;;;;;;5.20;3.25;;;17.10;99.90;;;;;;5061767;28;20047;-77
2023/09/20 00:49:00;;;;;;;6.13;3.88;;;17.10;99.90;;;;;;5050561;28;20277;-77
2023/09/20 00:51:28;;;;;;;5.30;2.20;;;17.10;99.90;;;;;;5037725;28;20044;-77
2023/09/20 00:53:57;;;;;;;7.60;3.05;;;17.10;99.90;;;;;;5057494;28;20033;-77
2023/09/20 00:56:25;;;;;;;3.65;2.63;;;17.10;99.90;;;;;;5054102;28;20099;-78
2023/09/20 00:58:56;;;;;;;4.45;2.22;;;17.00;99.90;;;;;;5046549;28;20416;-77
2023/09/20 01:01:28;;;;;;;4.60;3.05;;;16.90;99.90;;;;;;5061137;28;20089;-75
2023/09/20 01:03:55;;;;;;;5.82;3.03;;;16.90;99.90;;;;;;5062956;28;20036;-77
2023/09/20 01:06:26;;;;;;;4.38;2.88;;;17.00;99.90;;;;;;5043048;28;20060;-77
2023/09/20 01:08:55;;;;;;;5.90;2.88;;;16.90;99.90;;;;;;5068429;28;20373;-78
2023/09/20 01:11:23;;;;;;;4.88;2.80;;;16.90;99.90;;;;;;5062820;28;20049;-77
2023/09/20 01:13:52;;;;;;;5.28;2.92;;;16.90;99.90;;;;;;5051393;28;20047;-77
2023/09/20 01:16:19;;;;;;;3.58;2.55;;;16.90;99.90;;;;;;5062794;28;20055;-77
2023/09/20 01:18:47;;;;;;;4.63;2.78;;;17.00;99.90;;;;;;5038500;28;20052;-77
2023/09/20 01:21:15;;;;;;;5.07;2.70;;;16.90;99.90;;;;;;5045069;28;20517;-77
2023/09/20 01:23:42;;;;;;;5.82;3.03;;;16.90;99.90;;;;;;5051812;28;20045;-77
2023/09/20 01:26:12;;;;;;;5.95;2.70;;;16.90;99.90;;;;;;5058944;28;20041;-77
2023/09/20 01:28:39;;;;;;;6.43;3.15;;;16.90;99.90;;;;;;5064900;28;20076;-77
2023/09/20 01:31:07;;;;;;;4.68;2.50;;;16.90;99.90;;;;;;5047451;28;20507;-78
2023/09/20 01:33:35;;;;;;;5.28;2.92;;;16.80;99.90;;;;;;5057515;28;20538;-77
2023/09/20 01:36:06;;;;;;;4.72;3.00;;;16.90;99.90;;;;;;5060139;28;20143;-78
2023/09/20 01:38:34;;;;;;;6.38;2.58;;;16.80;99.90;;;;;;5048639;28;20103;-77
2023/09/20 01:41:03;;;;;;;3.80;2.40;;;16.80;99.90;;;;;;5051076;28;20967;-77
2023/09/20 01:43:31;;;;;;;4.93;2.92;;;16.80;99.90;;;;;;5045403;28;20065;-77
2023/09/20 01:45:58;;;;;;;4.55;2.70;;;16.80;99.90;;;;;;5056783;28;20056;-77
2023/09/20 01:48:26;;;;;;;4.35;3.13;;;16.80;99.90;;;;;;5058525;28;20032;-78
2023/09/20 01:50:54;;;;;;;6.65;3.05;;;16.80;99.90;;;;;;5043213;28;20127;-77
2023/09/20 01:53:24;;;;;;;5.25;2.80;;;16.70;99.90;;;;;;5062420;28;20132;-77
2023/09/20 01:55:52;;;;;;;5.32;2.70;;;16.70;99.90;;;;;;5052449;28;20068;-77
2023/09/20 01:58:19;;;;;;;4.38;3.13;;;16.70;99.90;;;;;;5054936;28;20102;-77
2023/09/20 02:00:50;;;;;;;4.75;2.90;;;16.70;99.90;;;;;;5047280;28;20060;-77
2023/09/20 02:03:18;;;;;;;4.13;2.87;;;16.60;99.90;;;;;;5039962;28;20060;-77
2023/09/20 02:05:47;;;;;;;5.28;2.67;;;16.60;99.90;;;;;;5050435;28;20404;-77
2023/09/20 02:08:18;;;;;;;3.30;2.58;;;16.60;99.90;;;;;;5066194;28;20320;-77
2023/09/20 02:10:46;;;;;;;4.45;3.00;;;16.50;99.90;;;;;;5061229;28;20040;-77
2023/09/20 02:13:15;;;;;;;4.55;2.80;;;16.60;99.90;;;;;;5041802;28;20122;-77
2023/09/20 02:15:44;;;;;;;6.22;3.20;;;16.60;99.90;;;;;;5057521;28;20053;-77
2023/09/20 02:18:12;;;;;;;6.57;2.90;;;16.50;99.90;;;;;;5066576;28;20045;-78
2023/09/20 02:20:39;;;;;;;6.03;2.38;;;16.50;99.90;;;;;;5064086;28;20126;-77
2023/09/20 02:23:12;;;;;;;5.82;3.08;;;16.50;99.90;;;;;;5063949;28;20045;-77
2023/09/20 02:25:42;;;;;;;5.97;2.95;;;16.50;99.90;;;;;;5050379;28;20045;-78
2023/09/20 02:28:10;;;;;;;4.78;3.05;;;16.50;99.90;;;;;;5060304;28;20045;-77
2023/09/20 02:30:38;;;;;;;3.85;2.55;;;16.50;99.90;;;;;;5062533;28;20044;-77
2023/09/20 02:33:08;;;;;;;6.90;3.17;;;16.50;99.90;;;;;;5047917;28;20049;-77
2023/09/20 02:35:36;;;;;;;3.75;2.40;;;16.40;99.90;;;;;;5061632;28;20084;-78
2023/09/20 02:38:05;;;;;;;6.20;2.80;;;16.40;99.90;;;;;;5065423;28;20404;-77
2023/09/20 02:40:35;;;;;;;3.72;2.42;;;16.30;99.90;;;;;;5061875;28;20098;-78
2023/09/20 02:43:08;;;;;;;5.80;3.00;;;16.40;99.90;;;;;;5059715;28;20118;-78
2023/09/20 02:45:39;;;;;;;5.35;2.78;;;16.40;99.90;;;;;;5051352;28;20059;-78
2023/09/20 02:48:08;;;;;;;4.43;2.75;;;16.40;99.90;;;;;;5050534;28;22774;-78
2023/09/20 02:50:36;;;;;;;4.50;2.85;;;16.30;99.90;;;;;;5073874;28;20551;-78
2023/09/20 02:53:05;;;;;;;6.13;3.03;;;16.30;99.90;;;;;;5065759;28;20057;-77
2023/09/20 02:55:34;;;;;;;4.90;3.20;;;16.30;99.90;;;;;;5060285;28;20411;-78
2023/09/20 02:58:01;;;;;;;5.38;3.03;;;16.30;99.90;;;;;;5046644;28;20052;-78
2023/09/20 03:00:31;;;;;;;3.95;2.97;;;16.20;99.90;;;;;;5066475;28;20061;-78
2023/09/20 03:03:02;;;;;;;5.28;3.20;;;16.20;99.90;;;;;;5050490;28;20048;-78
2023/09/20 03:05:38;;;;;;;4.70;3.20;;;16.20;99.90;;;;;;5067220;28;20045;-78
2023/09/20 03:08:11;;;;;;;4.68;3.50;;;16.20;99.90;;;;;;5055648;28;20048;-78
2023/09/20 03:10:43;;;;;;;5.13;3.53;;;16.20;99.90;;;;;;5076452;28;20075;-78
2023/09/20 03:13:17;;;;;;;5.90;3.25;;;16.20;99.90;;;;;;5055254;28;20064;-78
2023/09/20 03:15:54;;;;;;;5.07;3.08;;;16.20;99.90;;;;;;5067213;28;20399;-78
2023/09/20 03:18:24;;;;;;;4.65;3.22;;;16.20;99.90;;;;;;5049388;28;20053;-78
2023/09/20 03:21:05;;;;;;;6.03;3.00;;;16.10;99.90;;;;;;5049206;28;20518;-78
2023/09/20 03:23:33;;;;;;;4.97;2.90;;;16.10;99.90;;;;;;5067527;28;20074;-78
2023/09/20 03:26:02;;;;;;;5.50;2.70;;;16.10;99.90;;;;;;5066043;28;20102;-78
2023/09/20 03:28:32;;;;;;;7.30;3.10;;;16.10;99.90;;;;;;5064361;28;20036;-78
2023/09/20 03:31:06;;;;;;;5.47;3.45;;;16.10;99.90;;;;;;5055861;28;20072;-78
2023/09/20 03:33:34;;;;;;;4.70;3.13;;;16.10;99.90;;;;;;5057136;28;20044;-78
2023/09/20 03:36:15;;;;;;;9.85;3.58;;;16.00;99.90;;;;;;5048798;28;20044;-78
2023/09/20 03:38:45;;;;;;;4.43;3.28;;;16.00;99.90;;;;;;5055293;28;20048;-78
2023/09/20 03:41:13;;;;;;;5.28;3.40;;;16.00;99.90;;;;;;5063406;28;20139;-78
2023/09/20 03:43:41;;;;;;;8.10;3.90;;;16.00;99.90;;;;;;5058459;28;20132;-78
2023/09/20 03:46:09;;;;;;;4.93;3.63;;;16.00;99.90;;;;;;5039823;28;20037;-78
2023/09/20 03:48:37;;;;;;;6.78;3.90;;;16.00;99.90;;;;;;5045776;28;22837;-78
2023/09/20 03:51:06;;;;;;;7.30;3.78;;;16.00;99.90;;;;;;5047449;28;20132;-78
2023/09/20 03:53:35;;;;;;;6.25;3.50;;;16.00;99.90;;;;;;5054210;28;20045;-78
2023/09/20 03:56:03;;;;;;;5.18;3.80;;;16.00;99.90;;;;;;5064138;28;20059;-78
2023/09/20 03:58:30;;;;;;;3.75;2.97;;;16.00;99.90;;;;;;5052687;28;20047;-78
2023/09/20 04:00:57;;;;;;;4.22;3.25;;;16.00;99.90;;;;;;5069003;28;20060;-78
2023/09/20 04:03:25;;;;;;;6.50;3.13;;;15.90;99.90;;;;;;5066122;28;20503;-77
2023/09/20 04:05:56;;;;;;;6.35;3.63;;;16.00;99.90;;;;;;5054847;28;20518;-78
2023/09/20 04:08:24;;;;;;;8.77;3.63;;;16.00;99.90;;;;;;5059383;28;20422;-78
2023/09/20 04:10:51;;;;;;;8.10;3.95;;;15.90;99.90;;;;;;5057762;28;20040;-78
2023/09/20 04:13:18;;;;;;;6.10;3.78;;;15.90;99.90;;;;;;5050818;28;20127;-78
2023/09/20 04:15:45;;;;;;;7.22;3.60;;;15.80;99.90;;;;;;5063897;28;20047;-78
2023/09/20 04:18:13;;;;;;;8.25;3.88;;;15.90;99.90;;;;;;5049403;28;20044;-78
2023/09/20 04:20:45;;;;;;;8.68;3.80;;;15.90;99.90;;;;;;5066690;28;20114;-78
2023/09/20 04:23:14;;;;;;;6.68;4.10;;;15.90;99.90;;;;;;5064184;28;20572;-78
2023/09/20 04:25:43;;;;;;;6.95;3.92;;;15.80;99.90;;;;;;5055834;28;20048;-78
2023/09/20 04:28:10;;;;;;;8.77;3.90;;;15.80;99.90;;;;;;5050716;28;20087;-78
2023/09/20 04:30:38;;;;;;;8.65;4.47;;;15.80;99.90;;;;;;5050126;28;20055;-78
2023/09/20 04:33:10;;;;;;;6.35;3.65;;;15.80;99.90;;;;;;5040919;28;20033;-77
2023/09/20 04:35:40;;;;;;;5.00;3.67;;;15.70;99.90;;;;;;5042212;28;20055;-77
2023/09/20 04:38:13;;;;;;;5.47;3.75;;;15.70;99.90;;;;;;5072782;28;20045;-78
2023/09/20 04:40:40;;;;;;;6.78;3.83;;;15.70;99.90;;;;;;5059540;28;20045;-78
2023/09/20 04:43:08;;;;;;;8.75;4.25;;;15.70;99.90;;;;;;5062490;28;20091;-78
2023/09/20 04:45:35;;;;;;;6.80;3.58;;;15.70;99.90;;;;;;5067290;28;20044;-78
2023/09/20 04:48:05;;;;;;;5.45;3.58;;;15.60;99.90;;;;;;5026501;28;20061;-77
2023/09/20 04:50:35;;;;;;;6.22;3.40;;;15.60;99.90;;;;;;5023828;28;20045;-77
2023/09/20 04:53:03;;;;;;;7.28;4.07;;;15.60;99.90;;;;;;5023760;28;20073;-78
2023/09/20 04:55:34;;;;;;;7.90;3.10;;;15.60;99.90;;;;;;5018257;28;20548;-78
2023/09/20 04:58:01;;;;;;;6.80;3.63;;;15.70;99.90;;;;;;5009853;28;20041;-77
2023/09/20 05:00:37;;;;;;;6.85;3.47;;;15.70;99.90;;;;;;5009103;28;20982;-78
2023/09/20 05:03:07;;;;;;;5.32;3.42;;;15.70;99.90;;;;;;5017312;28;20140;-77
2023/09/20 05:05:35;;;;;;;8.35;3.75;;;15.70;99.90;;;;;;5021674;28;20045;-77
2023/09/20 05:08:03;;;;;;;4.88;3.20;;;15.70;99.90;;;;;;5024890;28;20549;-77
2023/09/20 05:10:32;;;;;;;6.50;3.40;;;15.70;99.90;;;;;;5020067;28;20122;-77
2023/09/20 05:13:01;;;;;;;5.80;3.70;;;15.80;99.90;;;;;;5020197;28;20064;-78
2023/09/20 05:15:28;;;;;;;6.82;4.07;;;15.80;99.90;;;;;;5017890;28;20085;-78
2023/09/20 05:17:56;;;;;;;6.65;3.65;;;15.80;99.90;;;;;;5008994;28;20041;-78
2023/09/20 05:20:25;;;;;;;7.32;3.60;;;15.90;99.90;;;;;;5060516;28;20435;-79
2023/09/20 05:22:54;;;;;;;8.10;4.57;;;15.90;99.90;;;;;;5063430;28;20406;-79
2023/09/20 05:25:21;;;;;;;8.68;4.28;;;15.90;99.90;;;;;;5051414;28;20490;-79
2023/09/20 05:27:48;;;;;;;8.70;4.63;;;15.90;99.90;;;;;;5054232;28;20049;-79
2023/09/20 05:30:16;;;;;;;18.13;9.75;;;16.00;99.90;;;;;;5072241;28;20135;-79
2023/09/20 05:32:43;;;;;;;29.02;13.30;;;16.20;99.90;;;;;;5049937;28;20056;-79
2023/09/20 05:35:11;;;;;;;18.15;9.23;;;16.10;99.90;;;;;;5053127;28;20099;-79
2023/09/20 05:37:39;;;;;;;9.23;5.45;;;16.20;99.90;;;;;;5053407;28;20059;-79
2023/09/20 05:40:13;;;;;;;8.68;4.72;;;16.30;99.90;;;;;;5057878;28;20048;-79
2023/09/20 05:42:42;;;;;;;8.75;4.63;;;16.40;99.90;;;;;;5061131;28;20045;-79
2023/09/20 05:45:09;;;;;;;10.23;4.85;;;16.40;99.90;;;;;;5062821;28;20076;-79
2023/09/20 05:47:36;;;;;;;10.90;5.10;;;16.40;99.90;;;;;;5058432;28;20503;-79
2023/09/20 05:50:06;;;;;;;10.15;5.00;;;16.40;99.90;;;;;;5061358;28;20073;-79
2023/09/20 05:52:34;;;;;;;8.82;4.95;;;16.40;99.90;;;;;;5059877;28;20049;-79
2023/09/20 05:55:03;;;;;;;10.52;5.20;;;16.50;99.90;;;;;;5057667;28;20048;-79
2023/09/20 05:57:30;;;;;;;9.00;4.68;;;16.60;99.90;;;;;;5042371;28;20040;-79
2023/09/20 05:59:57;;;;;;;8.98;4.93;;;16.60;99.90;;;;;;5068705;28;20080;-79
2023/09/20 06:02:25;;;;;;;10.25;5.03;;;16.70;99.90;;;;;;5047628;28;20041;-79
2023/09/20 06:04:52;;;;;;;12.07;5.38;;;16.70;99.90;;;;;;5060275;28;20110;-79
2023/09/20 06:07:20;;;;;;;10.98;5.40;;;16.80;99.90;;;;;;5049742;28;20135;-81
2023/09/20 06:09:47;;;;;;;8.70;4.90;;;16.90;99.90;;;;;;5047722;28;20138;-83
2023/09/20 06:12:14;;;;;;;7.80;4.32;;;17.00;99.90;;;;;;5041749;28;20068;-81
2023/09/20 06:14:41;;;;;;;9.65;5.00;;;17.00;99.90;;;;;;5063561;28;20045;-80
2023/09/20 06:17:08;;;;;;;9.13;5.47;;;17.10;99.90;;;;;;5048463;28;20474;-80
2023/09/20 06:19:35;;;;;;;8.57;5.53;;;17.20;99.90;;;;;;5050033;28;20057;-79
2023/09/20 06:22:03;;;;;;;9.60;6.38;;;17.20;99.90;;;;;;5041868;28;20605;-80
2023/09/20 06:24:30;;;;;;;9.40;6.03;;;17.20;99.90;;;;;;5061927;28;20048;-80
2023/09/20 06:26:58;;;;;;;10.18;5.85;;;17.30;99.90;;;;;;5059049;28;20048;-79
2023/09/20 06:29:26;;;;;;;15.38;6.70;;;17.40;99.90;;;;;;5063013;28;20068;-79
2023/09/20 06:31:54;;;;;;;10.18;5.78;;;17.40;99.90;;;;;;5064554;28;20045;-79
2023/09/20 06:34:24;;;;;;;10.70;6.72;;;17.60;99.90;;;;;;5063770;28;20040;-79
2023/09/20 06:36:51;;;;;;;7.82;5.63;;;17.60;99.90;;;;;;5058205;28;20044;-79
2023/09/20 06:39:19;;;;;;;10.75;6.05;;;17.70;99.90;;;;;;5063035;28;20041;-79
2023/09/20 06:41:46;;;;;;;9.48;5.88;;;17.80;99.90;;;;;;5057030;28;20423;-79
2023/09/20 06:44:15;;;;;;;10.30;5.80;;;17.90;99.90;;;;;;5050105;28;20042;-79
2023/09/20 06:46:42;;;;;;;7.30;4.75;;;17.90;99.90;;;;;;5064622;28;20104;-79
2023/09/20 06:49:09;;;;;;;7.40;5.05;;;18.10;99.90;;;;;;5049815;28;20063;-80
2023/09/20 06:51:36;;;;;;;8.55;4.93;;;18.20;99.90;;;;;;5054177;28;22701;-80
2023/09/20 06:54:04;;;;;;;8.70;5.25;;;18.30;99.90;;;;;;5054600;28;20073;-80
2023/09/20 06:56:31;;;;;;;8.82;4.35;;;18.30;99.90;;;;;;5062666;28;20056;-79
2023/09/20 06:58:59;;;;;;;8.52;4.63;;;18.40;99.90;;;;;;5058790;28;20049;-79
2023/09/20 07:01:26;;;;;;;8.55;4.30;;;18.60;99.90;;;;;;5058397;28;20041;-79
2023/09/20 07:03:53;;;;;;;10.95;4.90;;;18.80;99.90;;;;;;5053459;28;20049;-79
2023/09/20 07:06:20;;;;;;;7.75;4.50;;;18.80;99.90;;;;;;5061141;28;20045;-79
2023/09/20 07:08:47;;;;;;;8.05;4.82;;;19.00;99.90;;;;;;5048556;28;20060;-79
2023/09/20 07:11:17;;;;;;;7.68;4.18;;;19.10;99.90;;;;;;5051389;28;20041;-78
2023/09/20 07:13:45;;;;;;;6.85;4.47;;;19.20;99.90;;;;;;5052642;28;20049;-78
2023/09/20 07:16:12;;;;;;;6.00;4.05;;;19.20;99.90;;;;;;5054657;28;20055;-78
2023/09/20 07:18:44;;;;;;;7.57;3.85;;;19.30;99.90;;;;;;5045763;28;20053;-79
2023/09/20 07:21:14;;;;;;;5.10;3.42;;;19.30;99.90;;;;;;5054310;28;20067;-79
2023/09/20 07:23:41;;;;;;;7.97;4.25;;;19.30;99.90;;;;;;5058947;28;20070;-78
2023/09/20 07:26:09;;;;;;;4.88;2.95;;;19.30;99.90;;;;;;5062014;28;20496;-78
2023/09/20 07:28:36;;;;;;;6.05;3.35;;;19.30;99.90;;;;;;5063251;28;20032;-78
2023/09/20 07:31:06;;;;;;;6.72;3.00;;;19.40;99.90;;;;;;5056111;28;20060;-78
2023/09/20 07:33:33;;;;;;;5.70;4.00;;;19.60;99.90;;;;;;5065374;28;20044;-78
2023/09/20 07:36:01;;;;;;;6.18;3.65;;;19.80;99.90;;;;;;5056342;28;20049;-78
2023/09/20 07:38:29;;;;;;;4.10;3.03;;;20.10;99.90;;;;;;5057217;28;20076;-79
2023/09/20 07:41:13;;;;;;;4.40;2.80;;;20.30;99.90;;;;;;5054326;28;20041;-79
2023/09/20 07:43:44;;;;;;;5.45;3.17;;;20.50;99.90;;;;;;5047666;28;20053;-79
2023/09/20 07:46:15;;;;;;;4.97;2.78;;;20.70;99.90;;;;;;5047501;28;20598;-78
2023/09/20 07:48:47;;;;;;;3.38;2.03;;;20.70;99.90;;;;;;5046148;28;20052;-79
2023/09/20 07:51:20;;;;;;;3.25;1.80;;;20.70;99.90;;;;;;5056708;28;20091;-79
2023/09/20 07:53:49;;;;;;;3.00;1.30;;;20.60;99.90;;;;;;5060979;28;20114;-79
2023/09/20 07:56:17;;;;;;;2.30;1.60;;;20.50;99.90;;;;;;5059927;28;20135;-79
2023/09/20 07:58:44;;;;;;;3.13;1.42;;;20.80;99.90;;;;;;5041015;28;20052;-79
2023/09/20 08:01:17;;;;;;;3.47;1.30;;;21.20;99.90;;;;;;5040329;28;20052;-79
2023/09/20 08:03:50;;;;;;;3.67;1.05;;;21.20;99.90;;;;;;5056253;28;20047;-80
2023/09/20 08:06:20;;;;;;;1.95;0.73;;;21.10;99.90;;;;;;5071438;28;20040;-79
2023/09/20 08:08:48;;;;;;;1.55;0.85;;;21.00;99.90;;;;;;5064911;28;20148;-79
2023/09/20 08:11:16;;;;;;;3.70;0.98;;;21.10;99.90;;;;;;5072471;28;20662;-79
2023/09/20 08:13:51;;;;;;;1.98;0.70;;;21.30;99.90;;;;;;5055016;28;20044;-79
2023/09/20 08:16:19;;;;;;;2.45;1.05;;;21.40;99.90;;;;;;5053668;28;20045;-80
2023/09/20 08:19:06;;;;;;;3.92;1.17;;;21.60;99.90;;;;;;5062240;28;20507;-80
2023/09/20 08:21:34;;;;;;;2.72;1.10;;;21.60;99.90;;;;;;5044366;28;22790;-79
2023/09/20 09:00:34;;;;;;;1.42;0.40;;;22.80;96.40;;;;;;5049882;28;20473;-80
2023/09/20 09:03:04;;;;;;;2.42;0.40;;;23.00;95.40;;;;;;5044649;28;21092;-79
2023/09/20 09:05:33;;;;;;;3.47;0.60;;;23.00;95.60;;;;;;5053516;28;20815;-80
2023/09/20 09:08:03;;;;;;;5.40;1.23;;;23.10;95.60;;;;;;5060488;28;20033;-80
2023/09/20 09:10:30;;;;;;;1.13;0.40;;;23.20;94.60;;;;;;5057084;28;20067;-79
2023/09/20 09:12:57;;;;;;;4.00;0.60;;;23.30;94.90;;;;;;5056482;28;20495;-78
2023/09/20 09:15:27;;;;;;;1.80;0.40;;;23.10;94.50;;;;;;5053884;28;20059;-79
2023/09/20 09:17:55;;;;;;;2.22;0.60;;;23.20;95.70;;;;;;5053200;28;20389;-80
2023/09/20 09:20:22;;;;;;;1.75;0.60;;;23.20;94.90;;;;;;5042503;28;20049;-80
2023/09/20 09:22:50;;;;;;;4.90;0.77;;;23.20;94.80;;;;;;5062133;28;20047;-80
2023/09/20 09:25:24;;;;;;;2.15;0.45;;;23.40;95.40;;;;;;5055390;28;20051;-80
2023/09/20 09:27:53;;;;;;;1.55;0.30;;;23.50;92.80;;;;;;5054695;28;20048;-80
2023/09/20 09:30:21;;;;;;;1.92;0.95;;;23.50;93.60;;;;;;5056953;28;20175;-79
2023/09/20 09:32:50;;;;;;;2.67;0.43;;;23.50;94.10;;;;;;5022201;28;20484;-79
2023/09/20 09:35:21;;;;;;;3.20;0.30;;;23.50;92.50;;;;;;5057956;28;20135;-81
2023/09/20 09:38:06;;;;;;;2.60;1.08;;;23.50;92.90;;;;;;5056396;28;20520;-79
2023/09/20 09:40:55;;;;;;;3.42;0.38;;;23.70;92.10;;;;;;5051462;28;20102;-79
2023/09/20 09:43:23;;;;;;;2.25;0.38;;;23.60;91.20;;;;;;5060853;28;20503;-81
2023/09/20 09:45:54;;;;;;;2.38;0.32;;;23.70;92.40;;;;;;5052674;28;20051;-81
2023/09/20 09:48:24;;;;;;;1.33;0.30;;;23.90;91.40;;;;;;5056429;28;20060;-81
2023/09/20 09:50:55;;;;;;;2.85;0.40;;;24.10;91.20;;;;;;5068498;28;20041;-82
2023/09/20 09:53:25;;;;;;;1.08;0.30;;;24.30;91.30;;;;;;5049506;28;20039;-80
2023/09/20 09:55:54;;;;;;;1.50;0.50;;;24.30;90.80;;;;;;5063805;28;20048;-80
2023/09/20 09:58:21;;;;;;;1.55;0.28;;;24.30;90.50;;;;;;5057381;28;20384;-82
2023/09/20 10:00:53;;;;;;;3.30;0.57;;;24.50;90.30;;;;;;5058183;28;21033;-80
2023/09/20 10:03:34;;;;;;;0.60;0.20;;;24.60;90.00;;;;;;5038767;28;20060;-81
2023/09/20 10:06:12;;;;;;;1.80;0.30;;;24.70;90.00;;;;;;5051445;28;22309;-79
2023/09/20 10:08:41;;;;;;;3.25;0.28;;;24.60;86.80;;;;;;5044920;28;20052;-81
2023/09/20 10:11:10;;;;;;;2.63;0.40;;;24.60;86.70;;;;;;5062580;28;20037;-81
2023/09/20 10:13:39;;;;;;;1.30;0.22;;;24.20;87.70;;;;;;5045017;28;20056;-80
2023/09/20 10:16:10;;;;;;;1.30;0.30;;;24.10;87.50;;;;;;5045442;28;20041;-81
2023/09/20 10:18:51;;;;;;;;;;;24.20;88.20;;;;;;5043293;28;20077;-80
2023/09/20 10:21:26;;;;;;;1.02;0.40;;;24.40;87.80;;;;;;5057508;28;19952;-80
2023/09/20 10:23:55;;;;;;;1.95;0.30;;;24.10;89.30;;;;;;5052041;28;20048;-79
2023/09/20 10:26:22;;;;;;;0.88;0.30;;;24.00;89.30;;;;;;5061855;28;20048;-79
2023/09/20 10:28:57;;;;;;;2.35;0.30;;;24.10;88.60;;;;;;5051439;28;20037;-81
2023/09/20 10:31:27;;;;;;;1.60;0.32;;;24.30;88.40;;;;;;5037393;28;20076;-79
2023/09/20 10:33:55;;;;;;;2.65;0.32;;;24.40;88.40;;;;;;5055393;28;20045;-79
2023/09/20 10:36:27;;;;;;;1.48;0.30;;;24.50;87.10;;;;;;5058335;28;22931;-79
2023/09/20 10:39:19;;;;;;;1.73;0.63;;;24.60;89.20;;;;;;5044988;28;20060;-80
2023/09/20 10:41:50;;;;;;;1.98;0.20;;;24.70;86.60;;;;;;5035894;28;20049;-80
2023/09/20 10:44:28;;;;;;;1.60;0.65;;;24.70;85.50;;;;;;5060151;28;20057;-81
2023/09/20 10:47:04;;;;;;;1.02;0.20;;;24.50;83.60;;;;;;5054021;28;20056;-80
2023/09/20 10:49:50;;;;;;;2.03;0.30;;;24.50;84.90;;;;;;5056710;28;20045;-81
2023/09/20 10:52:33;;;;;;;1.63;0.50;;;24.60;84.40;;;;;;5049425;28;20048;-80
2023/09/20 10:55:33;;;;;;;0.57;0.20;;;24.70;86.40;;;;;;5041519;28;20041;-80
2023/09/20 10:58:01;;;;;;;1.38;0.32;;;24.70;85.10;;;;;;5065090;28;20138;-81
2023/09/20 11:00:31;;;;;;;1.13;0.52;;;24.90;83.90;;;;;;5046797;28;20152;-79
2023/09/20 11:02:58;;;;;;;1.17;0.30;;;24.90;84.20;;;;;;5053965;28;20137;-79
2023/09/20 11:05:28;;;;;;;1.05;0.30;;;24.90;83.90;;;;;;5061897;28;20037;-79
2023/09/20 11:07:57;;;;;;;1.10;0.20;;;25.00;82.70;;;;;;5048030;28;20049;-79
2023/09/20 11:10:25;;;;;;;0.80;0.30;;;24.90;83.50;;;;;;5056364;28;20041;-82
2023/09/20 11:12:55;;;;;;;1.45;0.30;;;25.00;84.40;;;;;;5064158;28;20056;-81
2023/09/20 11:15:23;;;;;;;1.17;0.50;;;25.00;83.40;;;;;;5048484;28;20080;-80
2023/09/20 11:17:51;;;;;;;0.93;0.25;;;24.90;82.10;;;;;;5063713;28;20048;-81
2023/09/20 11:20:19;;;;;;;0.93;0.40;;;25.00;83.70;;;;;;5053728;28;20048;-79
2023/09/20 11:22:47;;;;;;;2.10;0.25;;;25.10;83.80;;;;;;5058727;28;20105;-81
2023/09/20 11:25:15;;;;;;;0.77;0.30;;;25.10;82.90;;;;;;5057105;28;20133;-80
2023/09/20 11:27:42;;;;;;;1.52;0.20;;;25.20;83.10;;;;;;5042862;28;20048;-81
2023/09/20 11:30:10;;;;;;;1.35;0.20;;;25.20;81.80;;;;;;5045095;28;20041;-80
2023/09/20 11:32:39;;;;;;;1.23;0.20;;;25.30;82.90;;;;;;5065736;28;20050;-81
2023/09/20 11:35:07;;;;;;;1.65;0.30;;;25.40;82.60;;;;;;5053467;28;20511;-79
2023/09/20 11:37:35;;;;;;;2.85;0.30;;;25.20;83.10;;;;;;5053965;28;20462;-80
2023/09/20 11:40:04;;;;;;;2.40;0.28;;;24.90;83.20;;;;;;5056111;28;22802;-82
2023/09/20 11:42:38;;;;;;;0.85;0.20;;;25.00;83.30;;;;;;5066015;28;20141;-80
2023/09/20 11:45:10;;;;;;;1.48;0.25;;;24.90;83.00;;;;;;5047194;28;20139;-80
2023/09/20 11:47:58;;;;;;;1.40;0.20;;;24.70;83.70;;;;;;5059734;28;20040;-82
2023/09/20 11:50:25;;;;;;;3.15;0.38;;;25.00;83.70;;;;;;5051204;28;20058;-80
2023/09/20 11:52:54;;;;;;;3.35;0.30;;;25.00;82.90;;;;;;5047149;28;20049;-80
2023/09/20 11:55:22;;;;;;;3.60;0.28;;;25.30;83.50;;;;;;5038353;28;22856;-81
2023/09/20 11:57:49;;;;;;;0.82;0.10;;;25.40;83.00;;;;;;5046372;28;23566;-81
2023/09/20 12:00:27;;;;;;;0.35;0.10;;;25.50;82.10;;;;;;5051312;28;20076;-79
2023/09/20 12:02:58;;;;;;;1.77;0.22;;;25.30;81.50;;;;;;5049341;28;20045;-81
2023/09/20 12:05:26;;;;;;;1.42;0.30;;;25.20;81.80;;;;;;5061696;28;20122;-80
2023/09/20 12:07:59;;;;;;;1.42;0.30;;;25.30;82.60;;;;;;5057242;28;20166;-79
2023/09/20 12:10:27;;;;;;;2.65;0.20;;;25.50;83.70;;;;;;5062396;28;20048;-79
2023/09/20 12:12:55;;;;;;;0.75;0.22;;;25.60;79.40;;;;;;5047150;28;20064;-80
2023/09/20 12:15:23;;;;;;;2.88;0.30;;;25.40;79.20;;;;;;5066567;28;20056;-79
2023/09/20 12:17:55;;;;;;;0.70;0.10;;;25.20;79.80;;;;;;5052999;28;20044;-80
2023/09/20 12:20:24;;;;;;;0.95;0.30;;;25.00;79.90;;;;;;5066451;28;20049;-79
2023/09/20 12:22:53;;;;;;;0.98;0.28;;;24.90;80.50;;;;;;5063560;28;20084;-79
2023/09/20 12:25:20;;;;;;;0.57;0.30;;;25.00;79.50;;;;;;5060286;28;20068;-80
2023/09/20 12:27:48;;;;;;;2.00;0.20;;;25.40;79.20;;;;;;5060676;28;20518;-80
2023/09/20 12:30:15;;;;;;;1.35;0.40;;;25.50;78.10;;;;;;5045462;28;20938;-81
2023/09/20 12:32:42;;;;;;;0.90;0.20;;;25.50;77.60;;;;;;5057813;28;20040;-81
2023/09/20 12:35:10;;;;;;;1.15;0.20;;;25.60;77.40;;;;;;5036787;28;20131;-79
2023/09/20 12:37:38;;;;;;;0.60;0.20;;;25.60;77.10;;;;;;5048930;28;20070;-81
2023/09/20 12:40:09;;;;;;;3.58;0.20;;;25.50;76.20;;;;;;5047475;28;20048;-81
2023/09/20 12:42:37;;;;;;;1.55;0.20;;;25.50;77.20;;;;;;5071867;28;22903;-83
2023/09/20 12:45:08;;;;;;;0.60;0.15;;;25.60;76.20;;;;;;5062954;28;20053;-80
2023/09/20 12:47:39;;;;;;;2.08;0.20;;;25.50;75.10;;;;;;5061779;28;20048;-80
2023/09/20 12:50:12;;;;;;;1.58;0.20;;;25.50;77.30;;;;;;5047539;28;20064;-81
2023/09/20 12:52:42;;;;;;;0.60;0.40;;;25.50;77.10;;;;;;5065576;28;20040;-82
2023/09/20 12:55:11;;;;;;;4.10;1.13;;;25.60;75.50;;;;;;5064461;28;20052;-81
2023/09/20 12:57:39;;;;;;;1.17;0.20;;;25.60;76.00;;;;;;5059350;28;20487;-82
2023/09/20 13:00:12;;;;;;;1.27;0.20;;;25.40;75.10;;;;;;5034519;28;20044;-81
2023/09/20 13:02:47;;;;;;;0.50;0.20;;;25.30;76.30;;;;;;5044173;28;20044;-80
2023/09/20 13:05:15;;;;;;;1.58;0.20;;;25.40;76.20;;;;;;5050767;28;20052;-80
2023/09/20 13:07:42;;;;;;;2.13;0.15;;;25.40;75.50;;;;;;5049822;28;20110;-81
2023/09/20 13:10:13;;;;;;;2.08;0.20;;;25.40;76.80;;;;;;5054432;28;20060;-81
2023/09/20 13:12:41;;;;;;;1.35;0.20;;;25.40;75.80;;;;;;5062557;28;20088;-82
2023/09/20 13:15:12;;;;;;;1.60;0.20;;;25.40;76.30;;;;;;5044413;28;20045;-80
2023/09/20 13:17:44;;;;;;;0.82;0.30;;;25.50;75.10;;;;;;5053377;28;20071;-81
2023/09/20 13:20:15;;;;;;;1.38;0.38;;;25.60;75.30;;;;;;5043314;28;20059;-81
2023/09/20 13:22:43;;;;;;;1.20;0.20;;;25.50;74.80;;;;;;5045492;28;20105;-80
2023/09/20 13:25:14;;;;;;;2.33;0.10;;;25.40;76.00;;;;;;5055591;28;20072;-80
2023/09/20 13:27:43;;;;;;;1.13;0.20;;;25.40;75.00;;;;;;5053981;28;20052;-80
2023/09/20 13:30:11;;;;;;;3.08;0.20;;;25.40;74.60;;;;;;5054955;28;20049;-80
2023/09/20 13:32:40;;;;;;;0.63;0.20;;;25.40;74.80;;;;;;5067669;28;20115;-83
2023/09/20 13:35:11;;;;;;;2.28;0.20;;;25.40;75.40;;;;;;5037891;28;20486;-82